Airfield :
LOGIN :

Register | Disclaimer

   EN    FR    IT 

 










Legend :    VFR   Marginal VFR   IFR   Intensive IFR   Very Intensive IFR
Visi :
Ceiling :
>= 8 km
>= 3000ft
5 to 8 km
1000 to 3000 ft
1500m to 5 km
500 to 1000 ft
800 to 1500m
200 to 500 ft
< 800m
< 200 ft
Symbols :   Thunderstorms  Fog  Heavy snow  Heavy precipitations  Wind > 20 kt
SIGMETs :     Misc.  Thunderstorms  Icing  Turbulence  Mountain Waves  Volcanic Ashes







- Airport Elevation : 776 ft
- IATA code : RMS


ETAR - Ramstein Air Base

CURRENT METAR :
  • 220602Z 00000KT 4000 BR OVC002 01/01 A2979 RMK AO2A VIS 2800V4000 DZE0556DZB0556E02 SLP103 $

EXPIRED METARs :
  • 220556Z 00000KT 3000 R26/1400 -DZ BR OVC003 01/01 A2978 RMK AO2A DZB50 SLP100 P0000 60009 T00090009 10009 20003 55006 $
  • 220546Z 00000KT 2600 R26/1200 BR OVC003 01/01 A2979 RMK AO2A SLP103 $
  • 220525Z 00000KT 2800 R26/1300 BR OVC003 01/01 A2979 RMK AO2A SLP103 $
  • 220515Z 00000KT 3200 R26/1400 BR OVC003 01/01 A2980 RMK AO2A SLP107 $
  • 220504Z 00000KT 3600 R26/1500 BR OVC003 01/01 A2979 RMK AO2A SLP103 $
  • 220452Z 00000KT 4400 BR OVC003 01/01 A2979 RMK AO2A VIS 4400V6000 VIS 3600 RWY08 DZB22E31 SLP103 $
  • 220442Z 00000KT 6000 BR BKN002 OVC007 01/01 A2979 RMK AO2A DZB22E31 SLP103 $
  • 220432Z 00000KT 4000 BR SCT002 OVC007 01/01 A2979 RMK AO2A VIS 4000V5000 DZB22E31 CIG 005 RWY08 SLP103 $
  • 220416Z 00000KT 5000 BR SCT002 OVC007 01/01 A2979 RMK AO2A CIG 002V007 CIG 005 RWY08 SLP102 $
  • 220356Z 00000KT 4400 BR OVC002 01/01 A2979 RMK AO2A UPB10E23 SLP102 P0001 T00060005 $
  • 220333Z 00000KT 4400 BR OVC002 01/01 A2980 RMK AO2A UPB10E23 SLP105 $
  • 220323Z 00000KT 5000 BR OVC002 01/01 A2980 RMK AO2A DZB10E23 OVC V BKN SLP105 $
  • 220314Z 00000KT 5000 -DZ BR BKN002 OVC007 01/01 A2980 RMK AO2A DZB10 SLP105 $

TAF AMD TAF ETAR
Valid from the 22 at 05:00 until the 23 at 08:00 UTC


220510Z 2205/2308 27009KT 8000 -RA OVC003 620209 621105 QNH2976INS
BECMG 2209/2210 27012KT 9999 NSW BKN015 610609 611703 QNH2978INS
BECMG 2217/2218 30009KT 9999 BKN020 610609 611703 QNH2992INS
BECMG 2301/2302 27009KT 9999 BKN010 610609 611703 QNH3012INS TX08/2212Z TN01/2303Z
No reported NOTAMs for that airfield.
1 SIGMET reported for the Langen FIR (EDGG) :
 
Severe icing with freezing rain
EDGG SIGMET 7 VALID 220600/220800 EDZF
EDGG LANGEN FIR SEV ICE (FZRA) OBS E OF LINE N4845 E00940 - N5120 E00845 SFC/3000FT MOV SE WKN=



MET'MAP, your aeronautical weather chart ! - Copyright ORBIFLY December 2007 - Disclaimer

ORBIFLY MET'MAP TEAM :

Programming & Development : Alexandra Zaïnal
Concept & Development : Baudouin d'Aumeries
Co-Development & Prog : Marc-Olivier Méhu
Technical & hardware support : Manuel Goepfert

Contact : metmap@orbifly.com




SOURCES & CREDITS :

   NOAA